createdAt,value
2022-10-19T00:00:03.564Z,13.80
2022-10-19T00:01:03.566Z,13.80
2022-10-19T00:02:02.740Z,13.80
2022-10-19T00:03:02.831Z,13.80
2022-10-19T00:04:03.635Z,13.80
2022-10-19T00:05:02.972Z,13.80
2022-10-19T00:06:03.053Z,13.70
2022-10-19T00:07:03.038Z,13.70
2022-10-19T00:08:03.033Z,13.70
2022-10-19T00:09:02.962Z,13.70
2022-10-19T00:10:03.367Z,13.70
2022-10-19T00:11:03.239Z,13.70
2022-10-19T00:12:03.294Z,13.70
2022-10-19T00:13:03.431Z,13.70
2022-10-19T00:14:03.535Z,13.70
2022-10-19T00:15:02.626Z,13.70
2022-10-19T00:16:02.649Z,13.60
2022-10-19T00:17:02.793Z,13.70
2022-10-19T00:18:02.820Z,13.60
2022-10-19T00:19:02.761Z,13.60
2022-10-19T00:20:02.851Z,13.60
2022-10-19T00:21:02.894Z,13.60
2022-10-19T00:22:02.897Z,13.60
2022-10-19T00:23:03.050Z,13.60
2022-10-19T00:24:02.994Z,13.60
2022-10-19T00:25:03.024Z,13.60
2022-10-19T00:26:03.082Z,13.60
2022-10-19T00:27:03.131Z,13.60
2022-10-19T00:28:03.054Z,13.60
2022-10-19T00:29:03.085Z,13.60
2022-10-19T00:30:03.188Z,13.60
2022-10-19T00:31:03.304Z,13.60
2022-10-19T00:32:03.228Z,13.60
2022-10-19T00:33:03.279Z,13.60
2022-10-19T00:34:03.403Z,13.60
2022-10-19T00:35:03.361Z,13.60
2022-10-19T00:36:03.483Z,13.60
2022-10-19T00:37:02.647Z,13.60
2022-10-19T00:38:02.614Z,13.60
2022-10-19T00:39:02.795Z,13.60
2022-10-19T00:40:02.746Z,13.60
2022-10-19T00:41:02.781Z,13.60
2022-10-19T00:42:02.809Z,13.60
2022-10-19T00:43:02.883Z,13.60
2022-10-19T00:44:03.094Z,13.60
2022-10-19T00:45:03.078Z,13.50
2022-10-19T00:46:03.189Z,13.50
2022-10-19T00:47:03.325Z,13.60
2022-10-19T00:48:03.422Z,13.50
2022-10-19T00:49:04.057Z,13.50
2022-10-19T00:50:03.431Z,13.50
2022-10-19T00:51:03.604Z,13.50
2022-10-19T00:52:03.616Z,13.50
2022-10-19T00:53:02.679Z,13.50
2022-10-19T00:54:02.763Z,13.50
2022-10-19T00:55:02.786Z,13.50
2022-10-19T00:56:02.751Z,13.50
2022-10-19T00:57:02.736Z,13.40
2022-10-19T00:58:02.853Z,13.40
2022-10-19T00:59:02.810Z,13.40
2022-10-19T01:00:03.330Z,13.40
2022-10-19T01:01:02.740Z,13.40
2022-10-19T01:02:02.823Z,13.40
2022-10-19T01:03:02.825Z,13.40
2022-10-19T01:04:02.905Z,13.40
2022-10-19T01:05:02.981Z,13.40
2022-10-19T01:06:03.068Z,13.30
2022-10-19T01:07:02.990Z,13.30
2022-10-19T01:08:03.181Z,13.30
2022-10-19T01:09:03.138Z,13.30
2022-10-19T01:10:03.493Z,13.30
2022-10-19T01:11:03.474Z,13.30
2022-10-19T01:12:03.481Z,13.30
2022-10-19T01:13:03.576Z,13.20
2022-10-19T01:14:03.569Z,13.30
2022-10-19T01:15:02.772Z,13.20
2022-10-19T01:16:02.772Z,13.20
2022-10-19T01:17:03.388Z,13.20
2022-10-19T01:18:03.398Z,13.20
2022-10-19T01:19:03.474Z,13.20
2022-10-19T01:20:03.573Z,13.20
2022-10-19T01:21:02.666Z,13.20
2022-10-19T01:22:02.606Z,13.20
2022-10-19T01:23:02.772Z,13.20
2022-10-19T01:24:02.846Z,13.20
2022-10-19T01:25:02.816Z,13.20
2022-10-19T01:26:02.818Z,13.10
2022-10-19T01:27:02.905Z,13.10
2022-10-19T01:28:02.914Z,13.10
2022-10-19T01:29:03.199Z,13.10
2022-10-19T01:30:03.213Z,13.10
2022-10-19T01:31:03.135Z,13.10
2022-10-19T01:32:02.778Z,13.10
2022-10-19T01:33:02.862Z,13.10
2022-10-19T01:34:02.871Z,13.00
2022-10-19T01:35:02.950Z,13.00
2022-10-19T01:36:03.090Z,13.00
2022-10-19T01:37:03.038Z,13.00
2022-10-19T01:38:03.205Z,13.00
2022-10-19T01:39:03.153Z,13.00
2022-10-19T01:40:03.213Z,13.00
2022-10-19T01:41:03.172Z,13.00
2022-10-19T01:42:03.490Z,12.90
2022-10-19T01:43:03.564Z,12.90
2022-10-19T01:44:02.678Z,12.90
2022-10-19T01:45:02.678Z,12.90
2022-10-19T01:46:02.787Z,12.90
2022-10-19T01:47:02.834Z,12.90
2022-10-19T01:48:02.867Z,12.90
2022-10-19T01:49:03.014Z,12.90
2022-10-19T01:50:02.990Z,12.90
2022-10-19T01:51:02.969Z,12.80
2022-10-19T01:52:03.126Z,12.80
2022-10-19T01:53:03.164Z,12.80
2022-10-19T01:54:03.225Z,12.80
2022-10-19T01:55:03.159Z,12.80
2022-10-19T01:56:03.173Z,12.70
2022-10-19T01:57:03.149Z,12.70
2022-10-19T01:58:03.647Z,12.70
2022-10-19T01:59:03.298Z,12.70
2022-10-19T02:00:03.238Z,12.70
2022-10-19T02:01:03.392Z,12.70
2022-10-19T02:02:03.324Z,12.70
2022-10-19T02:03:03.391Z,12.70
2022-10-19T02:04:03.368Z,12.70
2022-10-19T02:05:03.461Z,12.70
2022-10-19T02:06:03.471Z,12.70
2022-10-19T02:07:03.559Z,12.70
2022-10-19T02:08:03.535Z,12.70
2022-10-19T02:09:02.730Z,12.70
2022-10-19T02:10:02.715Z,12.70
2022-10-19T02:11:02.817Z,12.60
2022-10-19T02:12:02.770Z,12.60
2022-10-19T02:13:02.839Z,12.60
2022-10-19T02:14:02.851Z,12.60
2022-10-19T02:15:02.908Z,12.60
2022-10-19T02:16:02.975Z,12.60
2022-10-19T02:17:03.091Z,12.60
2022-10-19T02:18:03.079Z,12.60
2022-10-19T02:19:03.021Z,12.60
2022-10-19T02:20:03.085Z,12.60
2022-10-19T02:21:03.189Z,12.60
2022-10-19T02:22:03.256Z,12.60
2022-10-19T02:23:03.213Z,12.60
2022-10-19T02:24:03.233Z,12.60
2022-10-19T02:25:03.176Z,12.50
2022-10-19T02:26:03.211Z,12.50
2022-10-19T02:27:03.257Z,12.50
2022-10-19T02:28:03.285Z,12.50
2022-10-19T02:29:03.314Z,12.50
2022-10-19T02:30:03.404Z,12.50
2022-10-19T02:31:03.396Z,12.50
2022-10-19T02:32:03.488Z,12.50
2022-10-19T02:33:03.478Z,12.50
2022-10-19T02:34:03.484Z,12.50
2022-10-19T02:35:02.668Z,12.40
2022-10-19T02:36:02.681Z,12.40
2022-10-19T02:37:02.740Z,12.40
2022-10-19T02:38:02.819Z,12.40
2022-10-19T02:39:02.860Z,12.40
2022-10-19T02:40:02.896Z,12.40
2022-10-19T02:41:02.863Z,12.40
2022-10-19T02:42:02.950Z,12.40
2022-10-19T02:43:03.040Z,12.40
2022-10-19T02:44:02.950Z,12.30
2022-10-19T02:45:03.263Z,12.30
2022-10-19T02:46:03.243Z,12.30
2022-10-19T02:47:03.269Z,12.30
2022-10-19T02:48:03.236Z,12.30
2022-10-19T02:49:03.412Z,12.30
2022-10-19T02:50:03.316Z,12.30
2022-10-19T02:51:03.263Z,12.30
2022-10-19T02:52:02.895Z,12.30
2022-10-19T02:53:02.915Z,12.30
2022-10-19T02:54:04.270Z,12.20
2022-10-19T02:55:02.940Z,12.20
2022-10-19T02:56:03.003Z,12.20
2022-10-19T02:57:02.944Z,12.20
2022-10-19T02:58:02.955Z,12.20
2022-10-19T02:59:03.081Z,12.20
2022-10-19T03:00:03.121Z,12.20
2022-10-19T03:01:03.157Z,12.20
2022-10-19T03:02:03.207Z,12.10
2022-10-19T03:03:03.025Z,12.10
2022-10-19T03:04:03.109Z,12.10
2022-10-19T03:05:03.072Z,12.10
2022-10-19T03:06:03.329Z,12.10
2022-10-19T03:07:03.327Z,12.10
2022-10-19T03:08:03.319Z,12.10
2022-10-19T03:09:03.471Z,12.10
2022-10-19T03:10:03.446Z,12.10
2022-10-19T03:11:03.470Z,12.10
2022-10-19T03:12:03.525Z,12.10
2022-10-19T03:13:03.582Z,12.10
2022-10-19T03:14:02.718Z,12.10
2022-10-19T03:15:02.648Z,12.10
2022-10-19T03:16:02.657Z,12.10
2022-10-19T03:17:02.729Z,12.10
2022-10-19T03:18:02.767Z,12.10
2022-10-19T03:19:02.748Z,12.00
2022-10-19T03:20:02.889Z,12.10
2022-10-19T03:21:02.855Z,12.00
2022-10-19T03:22:02.941Z,12.00
2022-10-19T03:23:02.951Z,12.00
2022-10-19T03:24:03.023Z,12.00
2022-10-19T03:25:03.254Z,12.00
2022-10-19T03:26:03.513Z,12.00
2022-10-19T03:27:03.340Z,12.10
2022-10-19T03:28:03.403Z,12.10
2022-10-19T03:29:03.353Z,12.00
2022-10-19T03:30:03.322Z,12.00
2022-10-19T03:31:03.328Z,12.00
2022-10-19T03:32:03.425Z,12.00
2022-10-19T03:33:03.586Z,12.00
2022-10-19T03:34:03.553Z,12.00
2022-10-19T03:35:02.596Z,12.00
2022-10-19T03:36:02.715Z,12.00
2022-10-19T03:37:02.835Z,12.00
2022-10-19T03:38:02.907Z,12.00
2022-10-19T03:39:03.046Z,11.90
2022-10-19T03:40:03.009Z,11.90
2022-10-19T03:41:03.130Z,11.90
2022-10-19T03:42:03.295Z,11.90
2022-10-19T03:43:03.247Z,11.90
2022-10-19T03:44:03.280Z,11.90
2022-10-19T03:45:03.436Z,11.90
2022-10-19T03:46:02.641Z,11.90
2022-10-19T03:47:03.171Z,11.90
2022-10-19T03:48:03.124Z,11.90
2022-10-19T03:49:03.266Z,11.90
2022-10-19T03:50:03.429Z,11.90
2022-10-19T03:51:03.419Z,11.90
2022-10-19T03:52:03.434Z,11.90
2022-10-19T03:54:03.524Z,11.80
2022-10-19T03:55:03.517Z,11.80
2022-10-19T03:56:02.648Z,11.80
2022-10-19T03:57:02.600Z,11.80
2022-10-19T03:58:02.625Z,11.80
2022-10-19T03:59:02.731Z,11.80
2022-10-19T04:00:02.734Z,11.80
2022-10-19T04:01:02.822Z,11.80
2022-10-19T04:02:02.723Z,11.80
2022-10-19T04:03:02.876Z,11.80
2022-10-19T04:04:02.814Z,11.80
2022-10-19T04:05:02.865Z,11.80
2022-10-19T04:06:03.002Z,11.80
2022-10-19T04:07:03.026Z,11.80
2022-10-19T04:08:03.025Z,11.80
2022-10-19T04:09:02.996Z,11.70
2022-10-19T04:10:03.114Z,11.70
2022-10-19T04:11:03.221Z,11.70
2022-10-19T04:12:03.280Z,11.70
2022-10-19T04:13:03.279Z,11.70
2022-10-19T04:14:03.689Z,11.70
2022-10-19T04:15:02.630Z,11.70
2022-10-19T04:16:02.752Z,11.70
2022-10-19T04:17:03.462Z,11.70
2022-10-19T04:18:03.551Z,11.70
2022-10-19T04:19:03.583Z,11.70
2022-10-19T04:20:03.619Z,11.70
2022-10-19T04:21:03.597Z,11.70
2022-10-19T04:22:02.667Z,11.70
2022-10-19T04:23:02.659Z,11.70
2022-10-19T04:24:02.725Z,11.70
2022-10-19T04:25:02.856Z,11.60
2022-10-19T04:26:02.944Z,11.60
2022-10-19T04:27:02.864Z,11.60
2022-10-19T04:28:02.928Z,11.60
2022-10-19T04:29:03.207Z,11.60
2022-10-19T04:30:03.056Z,11.60
2022-10-19T04:31:03.331Z,11.60
2022-10-19T04:32:03.323Z,11.60
2022-10-19T04:33:03.507Z,11.60
2022-10-19T04:34:03.503Z,11.60
2022-10-19T04:35:03.580Z,11.60
2022-10-19T04:36:03.540Z,11.60
2022-10-19T04:37:03.592Z,11.60
2022-10-19T04:38:02.739Z,11.60
2022-10-19T04:39:02.804Z,11.60
2022-10-19T04:40:02.910Z,11.60
2022-10-19T04:41:02.993Z,11.60
2022-10-19T04:42:02.891Z,11.60
2022-10-19T04:43:02.966Z,11.60
2022-10-19T04:44:02.927Z,11.60
2022-10-19T04:45:02.925Z,11.60
2022-10-19T04:46:03.078Z,11.60
2022-10-19T04:47:03.145Z,11.60
2022-10-19T04:48:03.326Z,11.60
2022-10-19T04:49:03.418Z,11.60
2022-10-19T04:50:03.529Z,11.60
2022-10-19T04:51:03.602Z,11.60
2022-10-19T04:52:03.551Z,11.60
2022-10-19T04:53:02.729Z,11.60
2022-10-19T04:54:02.788Z,11.60
2022-10-19T04:55:02.784Z,11.60
2022-10-19T04:56:02.837Z,11.60
2022-10-19T04:57:02.814Z,11.60
2022-10-19T04:58:02.956Z,11.60
2022-10-19T04:59:03.085Z,11.70
2022-10-19T05:00:03.107Z,11.60
2022-10-19T05:01:03.076Z,11.60
2022-10-19T05:02:03.100Z,11.70
2022-10-19T05:03:03.117Z,11.70
2022-10-19T05:04:03.062Z,11.60
2022-10-19T05:05:03.262Z,11.60
2022-10-19T05:06:03.314Z,11.60
2022-10-19T05:07:03.276Z,11.60
2022-10-19T05:08:03.346Z,11.70
2022-10-19T05:09:03.297Z,11.70
2022-10-19T05:10:03.260Z,11.70
2022-10-19T05:11:03.307Z,11.70
2022-10-19T05:12:03.300Z,11.70
2022-10-19T05:13:03.487Z,11.70
2022-10-19T05:14:03.494Z,11.70
2022-10-19T05:15:03.589Z,11.70
2022-10-19T05:16:03.546Z,11.70
2022-10-19T05:17:03.563Z,11.70
2022-10-19T05:18:02.688Z,11.70
2022-10-19T05:19:02.708Z,11.70
2022-10-19T05:20:02.701Z,11.70
2022-10-19T05:21:02.749Z,11.70
2022-10-19T05:22:02.848Z,11.70
2022-10-19T05:23:04.656Z,11.70
2022-10-19T05:24:02.923Z,11.70
2022-10-19T05:25:02.939Z,11.70
2022-10-19T05:26:02.943Z,11.70
2022-10-19T05:27:02.928Z,11.70
2022-10-19T05:28:02.644Z,11.70
2022-10-19T05:29:02.711Z,11.70
2022-10-19T05:30:02.615Z,11.70
2022-10-19T05:31:02.740Z,11.60
2022-10-19T05:32:02.718Z,11.60
2022-10-19T05:33:02.857Z,11.60
2022-10-19T05:34:03.045Z,11.60
2022-10-19T05:35:02.734Z,11.60
2022-10-19T05:36:03.474Z,11.60
2022-10-19T05:37:03.606Z,11.60
2022-10-19T05:38:02.658Z,11.60
2022-10-19T05:39:02.713Z,11.60
2022-10-19T05:40:02.770Z,11.60
2022-10-19T05:41:02.862Z,11.60
2022-10-19T05:42:02.813Z,11.60
2022-10-19T05:43:02.873Z,11.60
2022-10-19T05:44:03.157Z,11.60
2022-10-19T05:45:03.246Z,11.60
2022-10-19T05:46:03.384Z,11.60
2022-10-19T05:47:03.500Z,11.60
2022-10-19T05:48:03.469Z,11.60
2022-10-19T05:49:03.555Z,11.60
2022-10-19T05:50:02.687Z,11.60
2022-10-19T05:51:02.637Z,11.60
2022-10-19T05:52:02.644Z,11.60
2022-10-19T05:53:02.650Z,11.60
2022-10-19T05:54:02.846Z,11.60
2022-10-19T05:55:02.916Z,11.60
2022-10-19T05:56:02.901Z,11.60
2022-10-19T05:57:03.064Z,11.60
2022-10-19T05:58:03.069Z,11.50
2022-10-19T05:59:03.162Z,11.50
2022-10-19T06:00:03.214Z,11.50
2022-10-19T06:01:03.110Z,11.50
2022-10-19T06:02:03.195Z,11.50
2022-10-19T06:03:03.122Z,11.50
2022-10-19T06:04:03.197Z,11.50
2022-10-19T06:05:03.280Z,11.50
2022-10-19T06:06:03.236Z,11.50
2022-10-19T06:07:03.261Z,11.50
2022-10-19T06:08:03.444Z,11.50
2022-10-19T06:09:03.414Z,11.50
2022-10-19T06:10:03.307Z,11.50
2022-10-19T06:11:03.500Z,11.50
2022-10-19T06:12:03.563Z,11.50
2022-10-19T06:13:02.647Z,11.50
2022-10-19T06:14:02.707Z,11.50
2022-10-19T06:15:02.876Z,11.50
2022-10-19T06:16:03.020Z,11.50
2022-10-19T06:17:03.168Z,11.50
2022-10-19T06:18:03.140Z,11.50
2022-10-19T06:19:03.392Z,11.50
2022-10-19T06:20:03.540Z,11.50
2022-10-19T06:21:02.624Z,11.50
2022-10-19T06:22:02.773Z,11.50
2022-10-19T06:23:02.880Z,11.50
2022-10-19T06:24:02.835Z,11.40
2022-10-19T06:25:02.889Z,11.40
2022-10-19T06:26:02.875Z,11.40
2022-10-19T06:27:03.029Z,11.40
2022-10-19T06:28:02.859Z,11.40
2022-10-19T06:29:02.950Z,11.40
2022-10-19T06:30:02.948Z,11.40
2022-10-19T06:31:05.877Z,11.40
2022-10-19T06:32:02.964Z,11.40
2022-10-19T06:34:03.316Z,11.30
2022-10-19T06:35:03.343Z,11.30
2022-10-19T06:36:03.347Z,11.30
2022-10-19T06:37:03.535Z,11.30
2022-10-19T06:38:03.591Z,11.30
2022-10-19T06:39:03.623Z,11.30
2022-10-19T06:40:06.833Z,11.30
2022-10-19T06:41:03.611Z,11.30
2022-10-19T06:42:02.574Z,11.30
2022-10-19T06:43:02.699Z,11.30
2022-10-19T06:44:02.761Z,11.30
2022-10-19T06:45:02.804Z,11.30
2022-10-19T06:46:02.810Z,11.30
2022-10-19T06:47:02.854Z,11.30
2022-10-19T06:48:04.947Z,11.30
2022-10-19T06:49:02.810Z,11.30
2022-10-19T06:50:03.159Z,11.20
2022-10-19T06:51:06.095Z,11.20
2022-10-19T06:52:03.333Z,11.20
2022-10-19T06:53:03.365Z,11.20
2022-10-19T06:54:03.345Z,11.20
2022-10-19T06:55:03.455Z,11.20
2022-10-19T06:56:03.506Z,11.20
2022-10-19T06:57:03.516Z,11.20
2022-10-19T06:58:02.604Z,11.20
2022-10-19T06:59:02.877Z,11.20
2022-10-19T07:00:02.760Z,11.20
2022-10-19T07:01:02.929Z,11.20
2022-10-19T07:02:02.930Z,11.20
2022-10-19T07:03:02.972Z,11.20
2022-10-19T07:04:03.082Z,11.20
2022-10-19T07:05:04.556Z,11.20
2022-10-19T07:06:02.980Z,11.20
2022-10-19T07:07:02.982Z,11.20
2022-10-19T07:08:03.013Z,11.20
2022-10-19T07:09:02.925Z,11.20
2022-10-19T07:10:03.060Z,11.20
2022-10-19T07:11:03.041Z,11.20
2022-10-19T07:12:03.123Z,11.20
2022-10-19T07:13:03.371Z,11.30
2022-10-19T07:14:03.293Z,11.30
2022-10-19T07:15:03.334Z,11.30
2022-10-19T07:16:03.453Z,11.30
2022-10-19T07:17:03.550Z,11.30
2022-10-19T07:18:03.544Z,11.40
2022-10-19T07:19:03.598Z,11.40
2022-10-19T07:20:02.630Z,11.40
2022-10-19T07:21:02.746Z,11.40
2022-10-19T07:22:02.681Z,11.40
2022-10-19T07:23:02.812Z,11.40
2022-10-19T07:24:02.939Z,11.40
2022-10-19T07:25:02.962Z,11.40
2022-10-19T07:26:03.197Z,11.40
2022-10-19T07:27:03.268Z,11.40
2022-10-19T07:28:03.318Z,11.50
2022-10-19T07:29:03.361Z,11.50
2022-10-19T07:30:03.471Z,11.50
2022-10-19T07:31:03.434Z,11.50
2022-10-19T07:32:03.580Z,11.50
2022-10-19T07:33:03.654Z,11.60
2022-10-19T07:34:02.798Z,11.60
2022-10-19T07:35:02.918Z,11.60
2022-10-19T07:36:02.896Z,11.60
2022-10-19T07:37:02.938Z,11.60
2022-10-19T07:38:02.864Z,11.60
2022-10-19T07:39:02.939Z,11.70
2022-10-19T07:40:02.965Z,11.60
2022-10-19T07:41:02.927Z,11.70
2022-10-19T07:42:03.020Z,11.70
2022-10-19T07:43:03.012Z,11.60
2022-10-19T07:44:03.194Z,11.70
2022-10-19T07:45:03.192Z,11.70
2022-10-19T07:46:03.276Z,11.70
2022-10-19T07:47:03.266Z,11.70
2022-10-19T07:48:03.267Z,11.70
2022-10-19T07:49:03.341Z,11.70
2022-10-19T07:50:03.423Z,11.70
2022-10-19T07:51:03.566Z,11.70
2022-10-19T07:52:02.724Z,11.70
2022-10-19T07:53:02.708Z,11.70
2022-10-19T07:54:02.721Z,11.70
2022-10-19T07:55:02.762Z,11.70
2022-10-19T07:56:02.863Z,11.70
2022-10-19T07:57:02.825Z,11.70
2022-10-19T07:58:02.953Z,11.70
2022-10-19T07:59:02.851Z,11.70
2022-10-19T08:00:02.842Z,11.70
2022-10-19T08:01:02.881Z,11.70
2022-10-19T08:02:02.860Z,11.70
2022-10-19T08:03:31.513Z,11.70
2022-10-19T08:04:55.870Z,11.70
2022-10-19T08:05:06.304Z,11.70
2022-10-19T08:06:03.506Z,11.70
2022-10-19T08:07:03.464Z,11.70
2022-10-19T08:08:03.581Z,11.70
2022-10-19T08:09:03.564Z,11.70
2022-10-19T08:10:03.540Z,11.70
2022-10-19T08:11:03.584Z,11.70
2022-10-19T08:12:03.569Z,11.70
2022-10-19T08:13:03.578Z,11.70
2022-10-19T08:14:02.712Z,11.70
2022-10-19T08:15:02.690Z,11.80
2022-10-19T08:16:02.819Z,11.80
2022-10-19T08:17:02.821Z,11.80
2022-10-19T08:18:02.856Z,11.80
2022-10-19T08:19:02.896Z,11.80
2022-10-19T08:20:02.852Z,11.80
2022-10-19T08:21:02.795Z,11.80
2022-10-19T08:22:02.764Z,11.80
2022-10-19T08:23:02.965Z,11.80
2022-10-19T08:24:02.943Z,11.90
2022-10-19T08:25:02.914Z,11.90
2022-10-19T08:26:03.044Z,11.90
2022-10-19T08:27:03.110Z,11.90
2022-10-19T08:28:03.048Z,11.90
2022-10-19T08:29:03.299Z,11.90
2022-10-19T08:30:03.321Z,11.90
2022-10-19T08:31:03.159Z,11.90
2022-10-19T08:32:03.239Z,11.90
2022-10-19T08:33:03.271Z,11.90
2022-10-19T08:34:03.367Z,11.90
2022-10-19T08:35:06.032Z,11.90
2022-10-19T08:36:03.233Z,11.90
2022-10-19T08:37:06.656Z,11.90
2022-10-19T08:38:03.313Z,11.90
2022-10-19T08:39:03.299Z,11.90
2022-10-19T08:40:03.381Z,11.90
2022-10-19T08:41:03.531Z,11.90
2022-10-19T08:42:03.603Z,11.90
2022-10-19T08:43:03.588Z,11.90
2022-10-19T08:44:03.961Z,11.90
2022-10-19T08:45:02.769Z,12.00
2022-10-19T08:46:02.636Z,12.00
2022-10-19T08:47:02.791Z,12.00
2022-10-19T08:48:02.700Z,12.00
2022-10-19T08:49:02.658Z,12.00
2022-10-19T08:50:02.671Z,12.00
2022-10-19T08:51:02.758Z,12.00
2022-10-19T08:52:02.643Z,12.10
2022-10-19T08:53:02.711Z,12.10
2022-10-19T08:54:02.667Z,12.10
2022-10-19T08:55:02.697Z,12.10
2022-10-19T08:56:04.650Z,12.10
2022-10-19T08:57:02.706Z,12.10
2022-10-19T08:58:02.753Z,12.10
2022-10-19T08:59:02.798Z,12.10
2022-10-19T09:00:02.860Z,12.10
2022-10-19T09:01:02.863Z,12.10
2022-10-19T09:02:02.809Z,12.10
2022-10-19T09:03:02.928Z,12.10
2022-10-19T09:04:02.868Z,12.10
2022-10-19T09:05:02.951Z,12.10
2022-10-19T09:06:03.422Z,12.20
2022-10-19T09:07:03.395Z,12.20
2022-10-19T09:08:03.427Z,12.20
2022-10-19T09:09:03.508Z,12.20
2022-10-19T09:10:03.432Z,12.20
2022-10-19T09:11:03.560Z,12.30
2022-10-19T09:12:03.549Z,12.30
2022-10-19T09:13:02.665Z,12.30
2022-10-19T09:14:05.559Z,12.30
2022-10-19T09:15:03.585Z,12.30
2022-10-19T09:16:02.693Z,12.30
2022-10-19T09:17:02.710Z,12.30
2022-10-19T09:18:02.649Z,12.30
2022-10-19T09:19:02.775Z,12.30
2022-10-19T09:20:02.763Z,12.30
2022-10-19T09:21:02.801Z,12.30
2022-10-19T09:22:02.829Z,12.30
2022-10-19T09:23:02.746Z,12.30
2022-10-19T09:24:02.769Z,12.30
2022-10-19T09:25:02.860Z,12.30
2022-10-19T09:26:02.893Z,12.40
2022-10-19T09:27:02.865Z,12.40
2022-10-19T09:28:02.842Z,12.40
2022-10-19T09:29:02.965Z,12.40
2022-10-19T09:30:03.019Z,12.40
2022-10-19T09:31:02.947Z,12.40
2022-10-19T09:32:03.062Z,12.40
2022-10-19T09:33:03.075Z,12.40
2022-10-19T09:34:03.027Z,12.40
2022-10-19T09:35:03.148Z,12.40
2022-10-19T09:36:03.342Z,12.40
2022-10-19T09:37:03.371Z,12.40
2022-10-19T09:38:03.481Z,12.40
2022-10-19T09:39:03.627Z,12.40
2022-10-19T09:40:02.667Z,12.50
2022-10-19T09:41:02.752Z,12.50
2022-10-19T09:42:02.669Z,12.50
2022-10-19T09:43:02.798Z,12.50
2022-10-19T09:44:02.754Z,12.50
2022-10-19T09:45:02.735Z,12.50
2022-10-19T09:46:02.714Z,12.50
2022-10-19T09:47:02.767Z,12.50
2022-10-19T09:48:07.034Z,12.50
2022-10-19T09:49:02.988Z,12.40
2022-10-19T09:50:02.980Z,12.40
2022-10-19T09:51:03.021Z,12.40
2022-10-19T09:52:03.099Z,12.40
2022-10-19T09:53:03.037Z,12.50
2022-10-19T09:54:03.143Z,12.50
2022-10-19T09:55:03.165Z,12.50
2022-10-19T09:56:03.283Z,12.50
2022-10-19T09:57:03.360Z,12.60
2022-10-19T09:58:03.440Z,12.70
2022-10-19T09:59:03.416Z,12.70
2022-10-19T10:00:03.437Z,12.70
2022-10-19T10:01:03.575Z,12.80
2022-10-19T10:03:03.445Z,12.90
2022-10-19T10:04:03.511Z,13.00
2022-10-19T10:05:03.489Z,13.10
2022-10-19T10:06:03.581Z,13.10
2022-10-19T10:07:03.540Z,13.20
2022-10-19T10:08:03.544Z,13.20
2022-10-19T10:09:02.842Z,13.20
2022-10-19T10:10:02.842Z,13.20
2022-10-19T10:11:02.765Z,13.20
2022-10-19T10:12:02.753Z,13.20
2022-10-19T10:13:02.816Z,13.20
2022-10-19T10:14:04.008Z,13.20
2022-10-19T10:15:02.951Z,13.10
2022-10-19T10:16:03.064Z,13.10
2022-10-19T10:17:03.139Z,13.10
2022-10-19T10:18:03.338Z,13.10
2022-10-19T10:19:03.486Z,13.00
2022-10-19T10:20:03.570Z,13.00
2022-10-19T10:21:04.730Z,13.00
2022-10-19T10:22:03.607Z,12.90
2022-10-19T10:23:03.524Z,12.90
2022-10-19T10:24:03.467Z,12.90
2022-10-19T10:25:03.531Z,12.90
2022-10-19T10:26:03.510Z,12.90
2022-10-19T10:27:03.658Z,12.90
2022-10-19T10:28:03.581Z,13.00
2022-10-19T10:29:02.598Z,13.00
2022-10-19T10:30:02.696Z,13.00
2022-10-19T10:31:02.748Z,13.00
2022-10-19T10:32:02.798Z,13.00
2022-10-19T10:33:08.014Z,13.00
2022-10-19T10:34:06.421Z,13.00
2022-10-19T10:35:02.906Z,13.00
2022-10-19T10:36:02.924Z,13.00
2022-10-19T10:37:03.061Z,13.00
2022-10-19T10:38:02.943Z,13.00
2022-10-19T10:40:04.708Z,13.00
2022-10-19T10:41:02.951Z,13.00
2022-10-19T10:42:03.062Z,13.00
2022-10-19T10:43:03.153Z,13.00
2022-10-19T10:44:04.540Z,13.00
2022-10-19T10:45:03.348Z,13.00
2022-10-19T10:46:03.430Z,13.00
2022-10-19T10:47:03.628Z,13.00
2022-10-19T10:48:03.501Z,13.00
2022-10-19T10:49:02.634Z,13.00
2022-10-19T10:50:02.663Z,13.10
2022-10-19T10:51:02.722Z,13.10
2022-10-19T10:52:02.684Z,13.10
2022-10-19T10:53:02.702Z,13.10
2022-10-19T10:54:02.851Z,13.20
2022-10-19T10:55:02.946Z,13.20
2022-10-19T10:56:02.949Z,13.20
2022-10-19T10:57:04.340Z,13.30
2022-10-19T10:58:02.884Z,13.30
2022-10-19T10:59:02.922Z,13.30
2022-10-19T11:00:02.878Z,13.30
2022-10-19T11:01:05.299Z,13.30
2022-10-19T11:02:03.137Z,13.30
2022-10-19T11:03:03.116Z,13.40
2022-10-19T11:04:03.088Z,13.40
2022-10-19T11:05:03.163Z,13.40
2022-10-19T11:06:03.268Z,13.40
2022-10-19T11:07:03.320Z,13.40
2022-10-19T11:08:03.270Z,13.40
2022-10-19T11:09:03.436Z,13.40
2022-10-19T11:10:03.507Z,13.40
2022-10-19T11:11:02.679Z,13.40
2022-10-19T11:12:03.243Z,13.40
2022-10-19T11:13:03.116Z,13.40
2022-10-19T11:14:03.290Z,13.40
2022-10-19T11:15:03.305Z,13.40
2022-10-19T11:16:03.213Z,13.40
2022-10-19T11:17:03.358Z,13.40
2022-10-19T11:18:03.334Z,13.40
2022-10-19T11:19:03.440Z,13.40
2022-10-19T11:20:03.383Z,13.40
2022-10-19T11:21:03.409Z,13.40
2022-10-19T11:22:03.380Z,13.40
2022-10-19T11:23:03.467Z,13.30
2022-10-19T11:24:03.527Z,13.30
2022-10-19T11:25:03.477Z,13.30
2022-10-19T11:26:03.593Z,13.30
2022-10-19T11:27:02.767Z,13.30
2022-10-19T11:28:02.687Z,13.30
2022-10-19T11:29:02.780Z,13.30
2022-10-19T11:30:02.826Z,13.30
2022-10-19T11:31:02.801Z,13.30
2022-10-19T11:32:02.753Z,13.30
2022-10-19T11:33:02.880Z,13.30
2022-10-19T11:34:02.884Z,13.30
2022-10-19T11:35:02.885Z,13.30
2022-10-19T11:36:02.872Z,13.20
2022-10-19T11:37:02.953Z,13.20
2022-10-19T11:38:19.377Z,13.20
2022-10-19T11:39:03.020Z,13.20
2022-10-19T11:40:03.047Z,13.20
2022-10-19T11:41:17.221Z,13.20
2022-10-19T11:42:03.058Z,13.20
2022-10-19T11:43:03.207Z,13.20
2022-10-19T11:44:03.237Z,13.20
2022-10-19T11:45:03.189Z,13.20
2022-10-19T11:46:03.286Z,13.20
2022-10-19T11:47:03.221Z,13.20
2022-10-19T11:48:03.313Z,13.20
2022-10-19T11:49:03.450Z,13.20
2022-10-19T11:50:03.515Z,13.20
2022-10-19T11:51:17.245Z,13.20
2022-10-19T11:52:03.566Z,13.20
2022-10-19T11:53:03.622Z,13.20
2022-10-19T11:54:03.723Z,13.20
2022-10-19T11:55:02.632Z,13.20
2022-10-19T11:56:02.715Z,13.20
2022-10-19T11:57:04.892Z,13.20
2022-10-19T11:58:02.840Z,13.30
2022-10-19T11:59:02.918Z,13.30
2022-10-19T12:00:08.467Z,13.30
2022-10-19T12:01:03.022Z,13.30
2022-10-19T12:02:02.981Z,13.30
2022-10-19T12:03:03.969Z,13.30
2022-10-19T12:04:02.990Z,13.30
2022-10-19T12:05:03.125Z,13.30
2022-10-19T12:06:02.971Z,13.30
2022-10-19T12:07:03.083Z,13.30
2022-10-19T12:08:03.201Z,13.30
2022-10-19T12:09:03.325Z,13.30
2022-10-19T12:10:03.250Z,13.30
2022-10-19T12:12:03.496Z,13.30
2022-10-19T12:13:03.384Z,13.30
2022-10-19T12:14:02.750Z,13.30
2022-10-19T12:15:02.762Z,13.30
2022-10-19T12:16:02.933Z,13.30
2022-10-19T12:17:03.009Z,13.30
2022-10-19T12:18:03.276Z,13.40
2022-10-19T12:19:02.985Z,13.40
2022-10-19T12:20:02.918Z,13.40
2022-10-19T12:21:02.998Z,13.40
2022-10-19T12:22:03.102Z,13.40
2022-10-19T12:23:03.027Z,13.40
2022-10-19T12:24:03.020Z,13.40
2022-10-19T12:25:02.980Z,13.40
2022-10-19T12:26:03.004Z,13.40
2022-10-19T12:27:02.970Z,13.40
2022-10-19T12:28:03.061Z,13.40
2022-10-19T12:29:03.228Z,13.50
2022-10-19T12:30:03.216Z,13.50
2022-10-19T12:31:03.177Z,13.50
2022-10-19T12:32:03.244Z,13.50
2022-10-19T12:33:03.324Z,13.60
2022-10-19T12:34:03.493Z,13.60
2022-10-19T12:35:03.488Z,13.60
2022-10-19T12:36:03.546Z,13.60
2022-10-19T12:37:03.640Z,13.60
2022-10-19T12:38:03.578Z,13.60
2022-10-19T12:39:02.700Z,13.60
2022-10-19T12:40:03.621Z,13.60
2022-10-19T12:41:03.609Z,13.50
2022-10-19T12:42:03.590Z,13.50
2022-10-19T12:43:03.526Z,13.50
2022-10-19T12:44:03.704Z,13.50
2022-10-19T12:45:03.547Z,13.50
2022-10-19T12:46:02.736Z,13.40
2022-10-19T12:47:02.933Z,13.40
2022-10-19T12:48:02.731Z,13.40
2022-10-19T12:49:02.789Z,13.40
2022-10-19T12:50:02.934Z,13.40
2022-10-19T12:51:02.875Z,13.40
2022-10-19T12:52:02.903Z,13.40
2022-10-19T12:53:03.067Z,13.40
2022-10-19T12:54:03.056Z,13.40
2022-10-19T12:55:03.074Z,13.30
2022-10-19T12:56:02.987Z,13.30
2022-10-19T12:57:03.076Z,13.30